Time;durP1;ratioP1;P1;durP2;ratioP2;P2;SDS_P1;SDS_P2;PMS_P1;PMS_P2;Temp;Humidity;BMP_temperature;BMP_pressure;BME280_temperature;BME280_humidity;BME280_pressure;Samples;Min_cycle;Max_cycle;Signal;HPM_P1;HPM_P2
2022/09/06 00:01:27;;;;;;;15.83;14.20;;;18.40;87.30;;;;;;5075102;28;20268;-61
2022/09/06 00:03:53;;;;;;;14.57;13.23;;;18.30;87.30;;;;;;5074604;28;20204;-61
2022/09/06 00:06:19;;;;;;;14.67;13.30;;;18.30;87.40;;;;;;5059568;28;20331;-61
2022/09/06 00:08:46;;;;;;;15.20;13.70;;;18.30;87.40;;;;;;5062302;28;20285;-61
2022/09/06 00:11:13;;;;;;;15.93;14.20;;;18.30;87.50;;;;;;5091702;28;20180;-61
2022/09/06 00:13:39;;;;;;;15.13;13.73;;;18.20;87.50;;;;;;5074108;28;20219;-61
2022/09/06 00:16:10;;;;;;;14.03;12.83;;;18.30;87.60;;;;;;5041647;28;20193;-61
2022/09/06 00:18:36;;;;;;;14.77;13.47;;;18.30;87.50;;;;;;5076185;28;20203;-61
2022/09/06 00:21:11;;;;;;;15.53;13.93;;;18.30;87.40;;;;;;5074774;28;20274;-61
2022/09/06 00:23:37;;;;;;;14.97;13.60;;;18.30;87.40;;;;;;5059894;28;20189;-61
2022/09/06 00:26:03;;;;;;;15.00;13.67;;;18.30;87.40;;;;;;5075528;28;20200;-61
2022/09/06 00:28:29;;;;;;;15.20;13.70;;;18.30;87.50;;;;;;5080696;28;20285;-61
2022/09/06 00:30:55;;;;;;;15.90;14.03;;;18.20;87.50;;;;;;5086689;28;20204;-61
2022/09/06 00:33:21;;;;;;;15.27;13.97;;;18.30;87.60;;;;;;5058925;28;20196;-61
2022/09/06 00:35:48;;;;;;;16.10;14.53;;;18.30;87.60;;;;;;5074983;28;20204;-61
2022/09/06 00:38:13;;;;;;;15.47;14.07;;;18.20;87.70;;;;;;5072277;28;20188;-61
2022/09/06 00:40:39;;;;;;;15.83;14.20;;;18.20;87.60;;;;;;5076164;28;20221;-61
2022/09/06 00:43:05;;;;;;;15.77;14.17;;;18.20;87.60;;;;;;5113017;28;20270;-60
2022/09/06 00:45:31;;;;;;;16.90;15.10;;;18.20;87.60;;;;;;5080119;28;20287;-61
2022/09/06 00:47:58;;;;;;;17.27;15.77;;;18.20;87.60;;;;;;5075548;28;20194;-61
2022/09/06 00:50:24;;;;;;;16.33;14.70;;;18.20;87.80;;;;;;5077554;28;20193;-61
2022/09/06 00:52:52;;;;;;;17.57;15.50;;;18.20;87.90;;;;;;5078458;28;20281;-61
2022/09/06 00:55:19;;;;;;;16.47;14.90;;;18.20;87.90;;;;;;5075100;28;20270;-61
2022/09/06 00:57:49;;;;;;;16.30;14.77;;;18.20;87.90;;;;;;5074007;28;20196;-61
2022/09/06 01:00:16;;;;;;;17.40;15.70;;;18.20;87.90;;;;;;5074101;28;20438;-61
2022/09/06 01:02:42;;;;;;;15.90;14.43;;;18.20;87.90;;;;;;5102144;28;20195;-61
2022/09/06 01:05:09;;;;;;;15.70;14.30;;;18.20;88.00;;;;;;5073133;28;20173;-61
2022/09/06 01:07:59;;;;;;;17.17;15.40;;;18.20;87.90;;;;;;5060103;28;20189;-61
2022/09/06 01:11:03;;;;;;;15.00;13.43;;;18.20;87.70;;;;;;5093861;28;20195;-61
2022/09/06 01:13:44;;;;;;;16.73;15.13;;;18.10;87.60;;;;;;5070832;28;20209;-61
2022/09/06 01:16:32;;;;;;;15.13;13.83;;;18.20;87.60;;;;;;5085667;28;20188;-61
2022/09/06 01:19:33;;;;;;;15.00;13.70;;;18.20;87.60;;;;;;5092340;28;20185;-61
2022/09/06 01:22:51;;;;;;;16.33;14.77;;;18.20;87.70;;;;;;5051650;28;20239;-61
2022/09/06 01:25:59;;;;;;;16.10;14.60;;;18.10;87.70;;;;;;5010307;28;20193;-61
2022/09/06 01:28:41;;;;;;;16.20;14.73;;;18.10;87.70;;;;;;5084696;28;20235;-61
2022/09/06 01:31:32;;;;;;;16.53;14.93;;;18.10;87.70;;;;;;5063736;28;20281;-61
2022/09/06 01:33:57;;;;;;;17.97;14.77;;;18.00;87.80;;;;;;5075562;28;20203;-60
2022/09/06 01:36:27;;;;;;;16.87;15.27;;;18.00;87.90;;;;;;5070545;28;20185;-61
2022/09/06 01:38:53;;;;;;;18.27;14.70;;;18.00;87.80;;;;;;5075004;28;20220;-61
2022/09/06 01:41:18;;;;;;;16.63;15.00;;;18.00;87.80;;;;;;5062784;28;20191;-61
2022/09/06 01:43:47;;;;;;;15.63;14.20;;;18.00;87.90;;;;;;5057533;28;20194;-61
2022/09/06 01:46:27;;;;;;;17.17;15.60;;;17.90;87.90;;;;;;5073403;28;20199;-61
2022/09/06 01:49:01;;;;;;;16.13;14.63;;;17.90;87.90;;;;;;5078573;28;20184;-61
2022/09/06 01:52:02;;;;;;;16.30;14.90;;;17.90;87.90;;;;;;5076303;28;20184;-61
2022/09/06 01:54:45;;;;;;;16.60;15.07;;;17.90;87.90;;;;;;5064369;28;20189;-61
2022/09/06 01:57:26;;;;;;;16.27;14.40;;;17.90;88.00;;;;;;5067897;28;20259;-61
2022/09/06 02:00:05;;;;;;;15.77;14.27;;;17.90;87.80;;;;;;5086405;28;20283;-61
2022/09/06 02:03:06;;;;;;;15.30;13.73;;;17.80;87.70;;;;;;5072849;28;20177;-61
2022/09/06 02:05:47;;;;;;;15.40;13.97;;;17.80;87.50;;;;;;5070832;28;20211;-61
2022/09/06 02:08:24;;;;;;;15.10;13.60;;;17.80;87.60;;;;;;5074023;28;20177;-61
2022/09/06 02:11:05;;;;;;;15.20;13.90;;;17.80;87.50;;;;;;5073177;28;20185;-61
2022/09/06 02:13:52;;;;;;;15.63;14.17;;;17.70;87.40;;;;;;5082642;28;20211;-61
2022/09/06 02:16:25;;;;;;;14.77;13.47;;;17.70;87.40;;;;;;5091700;28;20215;-61
2022/09/06 02:19:09;;;;;;;15.50;13.93;;;17.70;87.40;;;;;;5073947;28;20196;-61
2022/09/06 02:21:39;;;;;;;15.33;14.03;;;17.70;87.60;;;;;;5087945;28;20189;-61
2022/09/06 02:24:10;;;;;;;14.80;13.30;;;17.70;87.50;;;;;;5072753;28;20173;-61
2022/09/06 02:26:41;;;;;;;16.00;14.43;;;17.60;87.30;;;;;;5090765;28;20215;-61
2022/09/06 02:29:07;;;;;;;14.83;13.53;;;17.50;87.20;;;;;;5093112;28;20285;-61
2022/09/06 02:31:37;;;;;;;16.47;14.97;;;17.50;87.20;;;;;;5066857;28;20247;-61
2022/09/06 02:34:03;;;;;;;15.93;14.30;;;17.50;87.40;;;;;;5090743;28;20266;-61
2022/09/06 02:36:30;;;;;;;15.97;14.60;;;17.50;87.30;;;;;;5094180;28;20193;-61
2022/09/06 02:38:58;;;;;;;15.47;14.10;;;17.50;87.40;;;;;;5068710;28;20197;-61
2022/09/06 02:41:24;;;;;;;15.80;14.33;;;17.50;87.50;;;;;;5109329;28;20195;-61
2022/09/06 02:43:50;;;;;;;14.23;13.00;;;17.50;87.50;;;;;;5107053;28;20184;-61
2022/09/06 02:46:16;;;;;;;14.57;13.37;;;17.40;87.30;;;;;;5081889;28;20196;-61
2022/09/06 02:48:41;;;;;;;16.07;14.47;;;17.40;87.20;;;;;;5063601;28;20249;-61
2022/09/06 02:51:08;;;;;;;14.80;13.40;;;17.40;87.10;;;;;;5073445;28;20239;-61
2022/09/06 02:53:34;;;;;;;15.83;13.73;;;17.40;87.10;;;;;;5095504;28;20234;-61
2022/09/06 02:56:00;;;;;;;16.83;15.10;;;17.30;87.20;;;;;;5090299;28;20284;-61
2022/09/06 02:58:27;;;;;;;14.87;13.47;;;17.30;87.20;;;;;;5073677;28;20185;-60
2022/09/06 03:00:52;;;;;;;15.50;14.10;;;17.30;87.20;;;;;;5088608;28;20299;-61
2022/09/06 03:03:20;;;;;;;15.60;13.57;;;17.30;87.30;;;;;;5063681;28;20263;-61
2022/09/06 03:05:50;;;;;;;14.83;13.43;;;17.20;87.20;;;;;;5079082;28;20249;-61
2022/09/06 03:08:17;;;;;;;15.03;13.73;;;17.20;87.20;;;;;;5097486;28;20177;-61
2022/09/06 03:10:54;;;;;;;15.53;13.90;;;17.20;87.20;;;;;;5068086;28;20288;-61
2022/09/06 03:13:21;;;;;;;15.53;14.07;;;17.10;87.40;;;;;;5085254;28;20188;-61
2022/09/06 03:15:52;;;;;;;14.57;13.07;;;17.20;87.40;;;;;;5077370;28;20293;-61
2022/09/06 03:18:17;;;;;;;15.43;13.93;;;17.10;87.30;;;;;;5096981;28;20188;-61
2022/09/06 03:20:43;;;;;;;14.20;13.00;;;17.10;87.20;;;;;;5079861;28;20213;-61
2022/09/06 03:23:08;;;;;;;14.73;13.43;;;17.10;87.30;;;;;;5054852;28;20185;-61
2022/09/06 03:25:34;;;;;;;14.03;12.83;;;17.10;87.20;;;;;;5073199;28;20253;-61
2022/09/06 03:28:00;;;;;;;15.13;13.23;;;17.10;87.20;;;;;;5063810;28;20403;-61
2022/09/06 03:30:26;;;;;;;14.17;12.77;;;17.00;87.20;;;;;;5088972;28;20188;-61
2022/09/06 03:32:51;;;;;;;14.23;12.93;;;17.00;87.20;;;;;;5079123;28;20260;-61
2022/09/06 03:35:17;;;;;;;15.17;13.50;;;17.00;87.10;;;;;;5061609;28;20198;-61
2022/09/06 03:37:43;;;;;;;15.73;14.33;;;16.90;87.40;;;;;;5075478;28;20204;-61
2022/09/06 03:40:09;;;;;;;14.00;12.60;;;16.90;87.20;;;;;;5067005;28;20316;-61
2022/09/06 03:42:35;;;;;;;14.33;12.93;;;16.90;87.20;;;;;;5090027;28;20186;-61
2022/09/06 03:45:00;;;;;;;14.63;13.33;;;16.90;87.30;;;;;;5079942;28;20222;-61
2022/09/06 03:47:26;;;;;;;16.17;14.67;;;16.90;87.30;;;;;;5099443;28;20199;-61
2022/09/06 03:49:52;;;;;;;14.40;13.10;;;16.90;87.30;;;;;;5059202;28;20265;-61
2022/09/06 03:52:17;;;;;;;15.17;13.83;;;16.80;87.30;;;;;;5051369;28;20245;-61
2022/09/06 03:54:43;;;;;;;15.37;12.97;;;16.80;87.50;;;;;;5087525;28;20188;-61
2022/09/06 03:57:09;;;;;;;14.87;13.47;;;16.80;87.50;;;;;;5061169;28;20241;-61
2022/09/06 03:59:35;;;;;;;14.57;13.17;;;16.80;87.50;;;;;;5079304;28;20332;-61
2022/09/06 04:02:01;;;;;;;14.13;12.63;;;16.80;87.30;;;;;;5073734;28;20203;-61
2022/09/06 04:04:27;;;;;;;15.03;13.63;;;16.70;87.20;;;;;;5109048;28;20192;-61
2022/09/06 04:06:52;;;;;;;14.33;13.03;;;16.80;87.50;;;;;;5079198;28;20272;-61
2022/09/06 04:09:18;;;;;;;14.43;12.97;;;16.80;87.40;;;;;;5096540;28;20196;-61
2022/09/06 04:11:44;;;;;;;13.87;12.67;;;16.80;87.20;;;;;;5079294;28;20200;-61
2022/09/06 04:14:09;;;;;;;15.17;13.67;;;16.70;87.10;;;;;;5079215;28;20197;-61
2022/09/06 04:16:35;;;;;;;14.27;13.07;;;16.70;87.20;;;;;;5058335;28;20202;-61
2022/09/06 04:19:02;;;;;;;14.50;13.10;;;16.70;87.20;;;;;;5074725;28;20295;-61
2022/09/06 04:21:28;;;;;;;14.83;13.30;;;16.70;87.30;;;;;;5087758;28;20184;-61
2022/09/06 04:23:53;;;;;;;14.93;13.43;;;16.60;87.30;;;;;;5079747;28;20236;-61
2022/09/06 04:26:19;;;;;;;14.73;13.37;;;16.60;87.40;;;;;;5073666;28;20280;-61
2022/09/06 04:28:45;;;;;;;14.30;13.00;;;16.60;87.40;;;;;;5108689;28;20240;-61
2022/09/06 04:31:11;;;;;;;15.73;14.10;;;16.60;87.40;;;;;;5062556;28;20275;-61
2022/09/06 04:33:37;;;;;;;14.47;13.17;;;16.50;87.50;;;;;;5112838;28;20224;-61
2022/09/06 04:36:06;;;;;;;13.20;11.90;;;16.50;87.60;;;;;;5058206;28;20200;-61
2022/09/06 04:38:35;;;;;;;14.37;12.90;;;16.50;87.50;;;;;;5090187;28;20194;-61
2022/09/06 04:41:02;;;;;;;13.43;12.23;;;16.50;87.50;;;;;;5087326;28;20233;-61
2022/09/06 04:43:27;;;;;;;15.13;13.63;;;16.50;87.50;;;;;;5112802;27;20222;-61
2022/09/06 04:45:53;;;;;;;13.80;12.60;;;16.50;87.50;;;;;;5061898;28;20213;-61
2022/09/06 04:48:19;;;;;;;14.63;13.43;;;16.40;87.40;;;;;;5061804;28;20188;-61
2022/09/06 04:50:44;;;;;;;14.67;13.27;;;16.50;87.60;;;;;;5077453;28;20192;-61
2022/09/06 04:53:10;;;;;;;14.10;12.80;;;16.50;87.50;;;;;;5060529;28;20192;-61
2022/09/06 04:55:36;;;;;;;15.93;13.17;;;16.50;87.60;;;;;;5062830;28;20192;-61
2022/09/06 04:58:03;;;;;;;15.87;13.67;;;16.50;87.50;;;;;;5092375;28;20216;-61
2022/09/06 05:00:31;;;;;;;14.50;13.27;;;16.50;87.50;;;;;;5091551;28;20201;-61
2022/09/06 05:02:57;;;;;;;14.47;12.97;;;16.50;87.40;;;;;;5090823;28;20181;-61
2022/09/06 05:05:23;;;;;;;15.50;14.10;;;16.40;87.30;;;;;;5081550;28;20280;-61
2022/09/06 05:07:54;;;;;;;14.47;13.10;;;16.40;87.40;;;;;;5078737;28;20284;-61
2022/09/06 05:10:21;;;;;;;14.80;13.47;;;16.40;87.50;;;;;;5093009;28;20214;-61
2022/09/06 05:12:51;;;;;;;16.27;14.83;;;16.50;87.50;;;;;;5076620;27;20219;-61
2022/09/06 05:15:18;;;;;;;13.63;12.43;;;16.50;87.60;;;;;;5095019;28;20218;-61
2022/09/06 05:17:43;;;;;;;15.40;14.00;;;16.40;87.70;;;;;;5057759;28;20203;-61
2022/09/06 05:20:10;;;;;;;15.10;13.83;;;16.50;87.80;;;;;;5077281;28;20223;-61
2022/09/06 05:22:37;;;;;;;14.67;13.17;;;16.40;87.80;;;;;;5077068;28;20226;-61
2022/09/06 05:25:03;;;;;;;13.93;12.73;;;16.50;87.90;;;;;;5103414;28;20201;-61
2022/09/06 05:27:29;;;;;;;14.33;13.10;;;16.50;87.90;;;;;;5090915;28;20219;-61
2022/09/06 05:29:54;;;;;;;15.73;12.97;;;16.60;87.90;;;;;;5057630;28;20197;-61
2022/09/06 05:32:21;;;;;;;14.53;13.27;;;16.50;88.00;;;;;;5043602;28;20216;-61
2022/09/06 05:34:47;;;;;;;15.33;14.00;;;16.60;88.10;;;;;;5078452;28;20228;-61
2022/09/06 05:37:13;;;;;;;16.00;14.40;;;16.60;88.20;;;;;;5059177;28;20193;-61
2022/09/06 05:39:38;;;;;;;14.83;13.53;;;16.70;88.20;;;;;;5076837;28;20318;-61
2022/09/06 05:42:07;;;;;;;15.17;13.77;;;16.60;88.20;;;;;;5068066;28;20189;-61
2022/09/06 05:44:34;;;;;;;15.87;14.37;;;16.60;88.30;;;;;;5077332;28;20305;-61
2022/09/06 05:47:00;;;;;;;15.50;14.00;;;16.70;88.30;;;;;;5059820;28;20238;-61
2022/09/06 05:49:28;;;;;;;16.33;14.83;;;16.70;88.40;;;;;;5094758;28;20199;-61
2022/09/06 05:51:54;;;;;;;15.50;14.10;;;16.70;88.40;;;;;;5094660;28;20217;-61
2022/09/06 05:54:20;;;;;;;15.57;14.10;;;16.80;88.40;;;;;;5059864;28;20671;-61
2022/09/06 05:56:45;;;;;;;16.10;14.70;;;16.80;88.50;;;;;;5094509;28;20199;-61
2022/09/06 05:59:11;;;;;;;16.03;14.47;;;16.80;88.50;;;;;;5060085;28;20279;-61
2022/09/06 06:01:45;;;;;;;15.87;14.47;;;16.80;88.50;;;;;;5077900;28;20220;-61
2022/09/06 06:04:10;;;;;;;15.97;14.47;;;16.80;88.50;;;;;;5076335;28;20284;-61
2022/09/06 06:06:36;;;;;;;16.27;14.77;;;16.80;88.50;;;;;;5078288;28;20288;-61
2022/09/06 06:09:02;;;;;;;16.27;14.77;;;16.90;88.50;;;;;;5080169;28;20283;-61
2022/09/06 06:11:29;;;;;;;16.13;14.73;;;16.90;88.60;;;;;;5078147;28;20193;-61
2022/09/06 06:13:55;;;;;;;16.80;15.20;;;17.00;88.60;;;;;;5076641;28;20181;-61
2022/09/06 06:16:22;;;;;;;17.10;15.50;;;17.00;88.60;;;;;;5079805;28;20191;-61
2022/09/06 06:18:48;;;;;;;16.53;14.93;;;17.00;88.60;;;;;;5097019;28;20193;-61
2022/09/06 06:21:21;;;;;;;16.77;15.27;;;17.00;88.60;;;;;;5094396;28;20250;-61
2022/09/06 06:23:53;;;;;;;16.47;14.97;;;17.10;88.50;;;;;;5081242;28;20212;-61
2022/09/06 06:26:19;;;;;;;16.13;14.73;;;17.10;88.60;;;;;;5096540;28;20193;-61
2022/09/06 06:28:45;;;;;;;16.20;14.77;;;17.10;88.60;;;;;;5096256;28;20322;-61
2022/09/06 06:31:11;;;;;;;16.17;14.77;;;17.20;88.60;;;;;;5086007;28;20216;-61
2022/09/06 06:33:38;;;;;;;15.27;13.93;;;17.20;88.60;;;;;;5094042;28;20204;-61
2022/09/06 06:36:19;;;;;;;16.13;14.50;;;17.20;88.70;;;;;;5094209;28;20230;-61
2022/09/06 06:38:45;;;;;;;16.87;15.17;;;17.30;88.70;;;;;;5107669;27;20191;-61
2022/09/06 06:41:14;;;;;;;17.33;15.77;;;17.30;88.70;;;;;;5094789;28;20247;-60
2022/09/06 06:43:40;;;;;;;16.37;14.83;;;17.30;88.70;;;;;;5095928;28;20311;-61
2022/09/06 06:46:08;;;;;;;16.57;15.07;;;17.30;88.70;;;;;;5098521;28;20283;-61
2022/09/06 06:48:34;;;;;;;16.57;14.87;;;17.30;88.60;;;;;;5097410;28;20191;-62
2022/09/06 06:51:00;;;;;;;17.13;15.37;;;17.30;88.60;;;;;;5077286;28;20200;-61
2022/09/06 06:53:26;;;;;;;17.43;15.93;;;17.40;88.60;;;;;;5094983;28;20218;-61
2022/09/06 06:55:52;;;;;;;18.13;16.23;;;17.50;88.60;;;;;;5094953;28;20288;-61
2022/09/06 06:58:18;;;;;;;15.87;14.43;;;17.50;88.50;;;;;;5097651;28;20238;-62
2022/09/06 07:00:44;;;;;;;16.87;14.60;;;17.50;88.50;;;;;;5095844;28;20205;-61
2022/09/06 07:03:11;;;;;;;15.97;14.37;;;17.50;88.50;;;;;;5098164;28;20180;-61
2022/09/06 07:05:38;;;;;;;17.50;15.70;;;17.60;88.50;;;;;;5071816;28;20184;-61
2022/09/06 07:08:05;;;;;;;17.73;16.13;;;17.70;88.40;;;;;;5094991;28;20224;-61
2022/09/06 07:10:31;;;;;;;17.97;16.23;;;17.70;88.40;;;;;;5085201;28;20279;-61
2022/09/06 07:12:57;;;;;;;17.27;15.47;;;17.70;88.40;;;;;;5096836;28;20284;-61
2022/09/06 07:15:23;;;;;;;16.93;15.40;;;17.70;88.20;;;;;;5099459;28;20188;-61
2022/09/06 07:17:49;;;;;;;17.63;16.03;;;17.80;88.20;;;;;;5075515;28;20211;-61
2022/09/06 07:20:15;;;;;;;16.30;14.73;;;17.80;88.10;;;;;;5112624;28;20197;-60
2022/09/06 07:22:41;;;;;;;16.27;14.80;;;17.80;88.00;;;;;;5076844;28;20188;-60
2022/09/06 07:25:08;;;;;;;16.63;15.03;;;17.90;87.90;;;;;;5113171;28;20189;-60
2022/09/06 07:27:33;;;;;;;16.97;15.37;;;17.90;88.00;;;;;;5095300;28;20229;-61
2022/09/06 07:29:59;;;;;;;16.93;15.33;;;18.00;87.90;;;;;;5079387;28;20199;-61
2022/09/06 07:32:25;;;;;;;17.03;15.53;;;18.00;87.80;;;;;;5071114;28;20197;-61
2022/09/06 07:34:50;;;;;;;16.63;15.23;;;18.00;87.70;;;;;;5089510;28;20229;-61
2022/09/06 07:37:16;;;;;;;15.83;14.43;;;18.10;87.70;;;;;;5068862;28;20198;-61
2022/09/06 07:39:42;;;;;;;15.87;14.37;;;18.10;87.60;;;;;;5077348;28;20207;-61
2022/09/06 07:42:08;;;;;;;17.47;15.97;;;18.20;87.60;;;;;;5062917;28;20220;-61
2022/09/06 07:44:33;;;;;;;17.40;15.87;;;18.20;87.60;;;;;;5079695;28;20195;-61
2022/09/06 07:47:05;;;;;;;17.60;15.90;;;18.20;87.50;;;;;;5094239;28;20184;-60
2022/09/06 07:49:31;;;;;;;16.43;14.93;;;18.30;87.60;;;;;;5063281;28;20195;-60
2022/09/06 07:51:57;;;;;;;17.83;16.10;;;18.40;87.40;;;;;;5093849;28;20185;-60
2022/09/06 07:54:22;;;;;;;17.50;15.90;;;18.40;87.40;;;;;;5084380;28;20192;-61
2022/09/06 07:56:48;;;;;;;17.67;15.83;;;18.50;87.50;;;;;;5101142;28;20239;-61
2022/09/06 07:59:14;;;;;;;17.00;15.43;;;18.60;87.10;;;;;;5077081;28;20188;-60
2022/09/06 08:01:40;;;;;;;17.63;16.07;;;18.70;86.90;;;;;;5078067;28;20265;-61
2022/09/06 08:04:13;;;;;;;17.63;16.10;;;18.80;86.30;;;;;;5061632;28;20185;-61
2022/09/06 08:06:45;;;;;;;17.07;15.53;;;18.90;86.50;;;;;;5094392;28;20184;-61
2022/09/06 08:09:11;;;;;;;17.13;15.33;;;19.00;85.50;;;;;;5094747;28;20253;-61
2022/09/06 08:11:37;;;;;;;18.30;16.43;;;19.20;85.30;;;;;;5062815;28;20212;-61
2022/09/06 08:14:05;;;;;;;16.30;14.70;;;19.20;85.20;;;;;;5092326;28;20275;-60
2022/09/06 08:16:32;;;;;;;16.97;14.07;;;19.20;84.70;;;;;;5095603;28;20237;-61
2022/09/06 08:19:03;;;;;;;15.70;14.30;;;19.30;84.20;;;;;;5078241;28;20198;-61
2022/09/06 08:21:31;;;;;;;15.87;14.57;;;19.30;84.30;;;;;;5095192;28;20221;-61
2022/09/06 08:23:59;;;;;;;14.87;13.57;;;19.50;83.70;;;;;;5102614;28;20188;-60
2022/09/06 08:26:26;;;;;;;14.77;13.47;;;19.60;82.80;;;;;;5089346;28;20264;-61
2022/09/06 08:29:04;;;;;;;15.97;14.33;;;19.70;83.30;;;;;;5076649;28;20231;-61
2022/09/06 08:31:31;;;;;;;14.93;13.63;;;19.60;83.50;;;;;;5084281;28;20177;-61
2022/09/06 08:33:59;;;;;;;16.20;14.80;;;19.70;84.00;;;;;;5075570;28;20201;-61
2022/09/06 08:36:31;;;;;;;15.60;14.00;;;19.70;84.00;;;;;;5074865;28;20249;-61
2022/09/06 08:39:04;;;;;;;16.33;14.30;;;19.70;82.80;;;;;;5094512;28;20259;-61
2022/09/06 08:41:52;;;;;;;16.20;14.63;;;19.80;82.20;;;;;;5086081;28;20211;-61
2022/09/06 08:44:22;;;;;;;14.63;13.40;;;19.90;81.80;;;;;;5101482;28;20230;-61
2022/09/06 08:47:01;;;;;;;15.87;14.47;;;20.00;82.00;;;;;;5094051;28;20437;-60
2022/09/06 08:49:30;;;;;;;19.27;16.23;;;20.10;81.60;;;;;;5095140;28;20180;-61
2022/09/06 08:52:45;;;;;;;18.17;16.37;;;20.40;80.90;;;;;;5092677;28;20192;-61
2022/09/06 08:55:29;;;;;;;17.73;16.00;;;20.40;81.40;;;;;;5084248;28;20196;-61
2022/09/06 08:58:16;;;;;;;15.93;14.43;;;20.50;82.20;;;;;;5082955;28;20176;-61
2022/09/06 09:00:50;;;;;;;16.93;15.33;;;20.60;81.20;;;;;;5084898;28;20231;-61
2022/09/06 09:03:20;;;;;;;16.47;14.87;;;20.60;80.40;;;;;;5087180;28;20179;-61
2022/09/06 09:05:52;;;;;;;16.47;14.93;;;20.70;80.80;;;;;;5089400;28;20399;-61
2022/09/06 09:08:38;;;;;;;16.70;15.20;;;20.80;80.50;;;;;;5089964;28;20274;-61
2022/09/06 09:11:13;;;;;;;17.13;15.50;;;21.00;79.70;;;;;;5101346;28;20244;-61
2022/09/06 09:13:58;;;;;;;18.20;16.50;;;21.20;80.30;;;;;;5087389;28;20185;-61
2022/09/06 09:16:24;;;;;;;20.77;17.03;;;21.20;80.00;;;;;;5093296;28;20184;-61
2022/09/06 09:19:02;;;;;;;18.00;16.37;;;21.30;78.90;;;;;;5077402;28;20223;-61
2022/09/06 09:21:36;;;;;;;16.57;14.97;;;21.30;78.50;;;;;;5086542;28;20212;-61
2022/09/06 09:24:13;;;;;;;17.77;16.20;;;21.30;79.00;;;;;;5080958;28;20275;-61
2022/09/06 09:27:04;;;;;;;17.73;15.90;;;21.30;79.10;;;;;;5111682;28;20188;-61
2022/09/06 09:29:30;;;;;;;19.80;17.87;;;21.40;79.00;;;;;;5085865;28;20262;-61
2022/09/06 09:31:56;;;;;;;19.10;17.17;;;21.40;79.30;;;;;;5099205;28;20276;-61
2022/09/06 09:34:34;;;;;;;16.97;15.47;;;21.40;79.80;;;;;;5090876;28;20187;-61
2022/09/06 09:37:23;;;;;;;17.80;16.20;;;21.50;79.30;;;;;;5092407;28;20188;-61
2022/09/06 09:39:51;;;;;;;18.47;16.77;;;21.50;79.50;;;;;;5093059;28;20551;-61
2022/09/06 09:42:31;;;;;;;18.63;16.93;;;21.60;79.60;;;;;;5098762;28;20267;-61
2022/09/06 09:44:58;;;;;;;19.20;17.27;;;21.70;78.60;;;;;;5093411;28;20191;-61
2022/09/06 09:47:29;;;;;;;17.40;15.67;;;21.70;78.80;;;;;;5073465;28;20189;-61
2022/09/06 09:49:56;;;;;;;17.47;15.83;;;21.70;78.20;;;;;;5087961;28;20245;-61
2022/09/06 09:52:29;;;;;;;18.43;16.83;;;21.70;78.90;;;;;;5093768;28;20188;-61
2022/09/06 09:54:59;;;;;;;16.93;15.43;;;21.80;78.90;;;;;;5095435;28;20176;-61
2022/09/06 09:57:28;;;;;;;16.97;15.47;;;21.80;78.80;;;;;;5093870;28;20184;-61
2022/09/06 09:59:57;;;;;;;17.67;15.87;;;21.80;79.30;;;;;;5072335;28;20204;-61
2022/09/06 10:02:34;;;;;;;16.37;14.97;;;21.80;78.60;;;;;;5089927;28;20255;-61
2022/09/06 10:05:12;;;;;;;15.73;14.33;;;22.00;77.50;;;;;;5093328;28;20180;-61
2022/09/06 10:07:57;;;;;;;14.80;13.33;;;22.00;77.80;;;;;;5088497;28;20186;-61
2022/09/06 10:10:30;;;;;;;15.20;13.90;;;22.00;77.30;;;;;;5106105;28;20192;-61
2022/09/06 10:13:22;;;;;;;15.30;13.80;;;22.00;76.80;;;;;;5080481;28;20204;-61
2022/09/06 10:15:50;;;;;;;14.67;13.37;;;22.20;77.00;;;;;;5105965;28;20202;-61
2022/09/06 10:18:40;;;;;;;14.70;13.40;;;22.10;75.90;;;;;;5111032;28;20188;-61
2022/09/06 10:21:14;;;;;;;13.73;12.33;;;22.20;76.40;;;;;;5082508;28;20223;-61
2022/09/06 10:23:55;;;;;;;14.97;13.63;;;22.20;74.80;;;;;;5099085;28;20192;-61
2022/09/06 10:26:39;;;;;;;13.77;12.57;;;22.20;75.40;;;;;;5080905;28;20192;-60
2022/09/06 10:29:08;;;;;;;14.00;12.77;;;22.20;74.80;;;;;;5082197;28;20220;-61
2022/09/06 10:32:00;;;;;;;14.37;12.97;;;22.20;75.30;;;;;;5077989;28;20184;-61
2022/09/06 10:34:46;;;;;;;14.30;13.07;;;22.30;75.00;;;;;;5091398;28;20189;-61
2022/09/06 10:37:52;;;;;;;14.07;12.73;;;22.40;75.10;;;;;;5073682;28;20188;-61
2022/09/06 10:40:28;;;;;;;13.30;12.20;;;22.50;76.30;;;;;;5083169;28;20219;-61
2022/09/06 10:42:56;;;;;;;13.80;12.60;;;22.50;75.30;;;;;;5092257;28;20184;-61
2022/09/06 10:45:34;;;;;;;12.50;11.40;;;22.60;77.10;;;;;;5093241;28;20252;-61
2022/09/06 10:48:14;;;;;;;14.60;13.20;;;22.80;73.90;;;;;;5092716;28;20185;-60
2022/09/06 10:50:46;;;;;;;13.20;12.00;;;22.80;75.80;;;;;;5106010;28;20244;-61
2022/09/06 10:53:20;;;;;;;12.90;11.70;;;22.80;74.20;;;;;;5104693;28;20245;-60
2022/09/06 10:55:56;;;;;;;12.67;11.57;;;22.80;75.60;;;;;;5097793;28;20225;-61
2022/09/06 10:58:27;;;;;;;12.80;11.70;;;22.80;73.90;;;;;;5113037;28;20237;-61
2022/09/06 11:00:54;;;;;;;13.23;11.93;;;23.00;75.10;;;;;;5115137;28;20208;-60
2022/09/06 11:03:36;;;;;;;12.97;11.77;;;23.20;74.30;;;;;;5079754;28;20207;-60
2022/09/06 11:06:07;;;;;;;12.27;11.13;;;23.40;72.80;;;;;;5106461;28;20190;-61
2022/09/06 11:08:49;;;;;;;11.90;10.90;;;23.60;72.50;;;;;;5095479;28;20191;-60
2022/09/06 11:11:34;;;;;;;12.03;10.93;;;23.70;72.80;;;;;;5109649;28;20188;-61
2022/09/06 11:14:08;;;;;;;12.70;11.50;;;24.00;72.10;;;;;;5096221;27;20273;-61
2022/09/06 11:16:44;;;;;;;12.23;11.23;;;23.80;70.00;;;;;;5079651;28;20189;-62
2022/09/06 11:19:16;;;;;;;12.27;11.27;;;23.90;73.10;;;;;;5086387;28;20203;-62
2022/09/06 11:21:54;;;;;;;11.57;10.53;;;24.20;71.40;;;;;;5113187;27;20279;-65
2022/09/06 11:24:52;;;;;;;12.07;10.97;;;24.30;71.00;;;;;;5100006;28;20184;-61
2022/09/06 11:27:29;;;;;;;11.47;10.40;;;24.30;71.90;;;;;;5109255;28;20234;-62
2022/09/06 11:29:57;;;;;;;12.77;11.33;;;24.70;70.80;;;;;;5070244;28;20236;-61
2022/09/06 11:32:42;;;;;;;10.60;9.80;;;24.70;68.30;;;;;;5091480;28;20192;-63
2022/09/06 11:35:29;;;;;;;10.53;9.53;;;24.90;69.00;;;;;;5056581;28;20185;-60
2022/09/06 11:38:03;;;;;;;10.80;9.73;;;24.80;69.80;;;;;;5073104;28;20189;-61
2022/09/06 11:40:37;;;;;;;10.87;9.87;;;25.00;67.60;;;;;;5074657;28;20227;-61
2022/09/06 11:43:02;;;;;;;10.63;9.67;;;25.00;67.80;;;;;;5072539;28;20181;-61
2022/09/06 11:45:50;;;;;;;10.00;9.10;;;24.90;68.00;;;;;;5072192;28;20203;-63
2022/09/06 11:48:22;;;;;;;11.17;10.20;;;25.20;68.70;;;;;;5076174;28;20241;-63
2022/09/06 11:51:11;;;;;;;9.23;8.43;;;25.20;66.20;;;;;;5073877;28;20387;-62
2022/09/06 11:53:57;;;;;;;10.13;9.30;;;25.30;67.60;;;;;;5064518;28;20239;-61
2022/09/06 11:56:38;;;;;;;9.83;8.87;;;25.20;66.60;;;;;;5070104;28;20192;-60
2022/09/06 11:59:17;;;;;;;10.53;9.60;;;25.20;67.40;;;;;;5090443;28;20195;-61
2022/09/06 12:02:47;;;;;;;9.20;8.43;;;25.30;64.30;;;;;;5091539;28;20257;-61
2022/09/06 12:05:16;;;;;;;10.13;9.13;;;25.40;66.00;;;;;;4984593;28;20226;-61
2022/09/06 12:08:12;;;;;;;9.43;8.63;;;25.70;64.20;;;;;;5071837;28;20208;-61
2022/09/06 12:10:38;;;;;;;9.73;8.83;;;25.80;66.30;;;;;;5056305;28;20182;-61
2022/09/06 12:13:41;;;;;;;9.27;8.43;;;26.00;66.40;;;;;;5073099;28;20192;-61
2022/09/06 12:16:08;;;;;;;9.20;8.50;;;26.20;66.30;;;;;;5072055;28;20193;-61
2022/09/06 12:18:53;;;;;;;9.07;8.37;;;26.70;63.50;;;;;;5071233;28;20195;-61
2022/09/06 12:21:39;;;;;;;8.83;8.13;;;26.90;60.70;;;;;;5072295;28;20243;-61
2022/09/06 12:24:08;;;;;;;8.50;7.70;;;27.00;59.60;;;;;;5071685;28;20204;-61
2022/09/06 12:27:18;;;;;;;9.80;7.63;;;27.50;59.50;;;;;;5073186;28;20177;-61
2022/09/06 12:30:28;;;;;;;8.03;7.33;;;27.80;57.20;;;;;;5088005;28;20196;-61
2022/09/06 12:32:54;;;;;;;7.70;7.10;;;28.10;56.50;;;;;;5082020;28;20197;-61
2022/09/06 12:35:24;;;;;;;10.50;7.73;;;28.50;55.50;;;;;;5084163;28;20203;-61
2022/09/06 12:37:53;;;;;;;7.20;6.60;;;28.80;55.00;;;;;;5093733;28;20192;-61
2022/09/06 12:40:20;;;;;;;7.53;6.93;;;29.00;53.00;;;;;;5091113;28;20299;-61
2022/09/06 12:42:47;;;;;;;7.50;6.30;;;29.30;52.20;;;;;;5090061;28;20248;-61
2022/09/06 12:45:14;;;;;;;7.00;6.50;;;29.30;51.60;;;;;;5077716;28;20238;-60
2022/09/06 12:47:39;;;;;;;7.57;6.83;;;29.40;51.70;;;;;;5059335;28;20197;-60
2022/09/06 12:50:16;;;;;;;7.03;6.43;;;30.00;52.40;;;;;;5090562;28;20197;-61
2022/09/06 12:52:58;;;;;;;6.70;6.20;;;30.10;51.00;;;;;;5092484;28;20219;-61